Time;durP1;ratioP1;P1;durP2;ratioP2;P2;SDS_P1;SDS_P2;PMS_P1;PMS_P2;Temp;Humidity;BMP_temperature;BMP_pressure;BME280_temperature;BME280_humidity;BME280_pressure;Samples;Min_cycle;Max_cycle;Signal;HPM_P1;HPM_P2
2023/05/01 00:02:09;;;;;;;1.15;0.90;;;21.60;70.30;;;;;;5127365;27;20297;-63
2023/05/01 00:04:35;;;;;;;1.17;0.90;;;21.60;70.40;;;;;;5131702;27;20228;-62
2023/05/01 00:07:02;;;;;;;1.00;0.80;;;21.60;70.30;;;;;;5129027;27;20193;-62
2023/05/01 00:09:31;;;;;;;1.40;0.90;;;21.60;70.50;;;;;;5125741;27;20204;-63
2023/05/01 00:11:57;;;;;;;1.42;1.00;;;21.60;70.50;;;;;;5124449;27;20207;-62
2023/05/01 00:14:24;;;;;;;1.10;1.00;;;21.60;70.40;;;;;;5125189;27;20204;-61
2023/05/01 00:16:51;;;;;;;1.20;1.00;;;21.60;70.40;;;;;;5111676;27;20224;-62
2023/05/01 00:19:17;;;;;;;0.90;0.70;;;21.50;70.40;;;;;;5118942;27;20263;-62
2023/05/01 00:21:46;;;;;;;1.33;0.90;;;21.50;70.30;;;;;;5120884;27;20303;-62
2023/05/01 00:24:13;;;;;;;1.00;0.80;;;21.60;70.40;;;;;;5118259;27;20259;-63
2023/05/01 00:26:41;;;;;;;1.70;0.90;;;21.50;70.30;;;;;;5131634;27;20246;-62
2023/05/01 00:29:08;;;;;;;1.20;1.00;;;21.50;70.40;;;;;;5129370;27;20559;-64
2023/05/01 00:31:35;;;;;;;2.65;0.80;;;21.50;70.30;;;;;;5122385;27;20283;-64
2023/05/01 00:34:02;;;;;;;2.15;1.05;;;21.50;70.30;;;;;;5129417;27;20196;-63
2023/05/01 00:36:28;;;;;;;1.20;1.02;;;21.50;70.20;;;;;;5130782;27;20192;-62
2023/05/01 00:38:55;;;;;;;1.10;1.00;;;21.50;70.40;;;;;;5126527;27;20189;-62
2023/05/01 00:41:21;;;;;;;2.28;1.08;;;21.50;70.30;;;;;;5118427;27;20204;-63
2023/05/01 00:43:49;;;;;;;1.88;0.98;;;21.50;70.40;;;;;;5126148;27;20209;-62
2023/05/01 00:46:17;;;;;;;1.13;0.80;;;21.50;70.40;;;;;;5116911;27;20714;-62
2023/05/01 00:48:44;;;;;;;1.17;0.93;;;21.40;70.10;;;;;;5127292;27;20202;-62
2023/05/01 00:51:12;;;;;;;1.33;0.82;;;21.40;70.30;;;;;;5120599;27;20194;-63
2023/05/01 00:53:41;;;;;;;1.30;0.85;;;21.40;70.20;;;;;;5111742;27;20213;-63
2023/05/01 00:56:07;;;;;;;1.10;0.90;;;21.40;70.20;;;;;;5118536;27;20283;-63
2023/05/01 00:58:34;;;;;;;1.05;0.90;;;21.40;70.30;;;;;;5129175;27;20204;-62
2023/05/01 01:01:03;;;;;;;2.15;0.90;;;21.40;70.20;;;;;;5115743;27;20285;-63
2023/05/01 01:03:31;;;;;;;1.00;0.90;;;21.40;70.20;;;;;;5130184;27;20280;-62
2023/05/01 01:06:04;;;;;;;0.93;0.80;;;21.30;70.20;;;;;;5123953;27;20301;-62
2023/05/01 01:08:38;;;;;;;1.25;0.90;;;21.30;70.20;;;;;;5119529;27;20275;-62
2023/05/01 01:11:14;;;;;;;1.52;1.30;;;21.30;70.10;;;;;;5117321;27;20194;-62
2023/05/01 01:13:47;;;;;;;2.25;1.10;;;21.40;70.20;;;;;;5107211;27;20189;-62
2023/05/01 01:16:21;;;;;;;1.13;0.98;;;21.30;70.00;;;;;;5119588;27;20276;-63
2023/05/01 01:18:54;;;;;;;0.90;0.70;;;21.30;70.10;;;;;;5127683;27;20289;-64
2023/05/01 01:21:26;;;;;;;1.15;0.85;;;21.30;70.20;;;;;;5117663;27;20212;-63
2023/05/01 01:24:29;;;;;;;1.30;1.10;;;21.30;70.20;;;;;;5121948;27;20273;-62
2023/05/01 01:27:14;;;;;;;1.00;0.80;;;21.30;70.20;;;;;;5120371;27;20193;-63
2023/05/01 01:29:51;;;;;;;1.73;0.90;;;21.30;70.30;;;;;;5113609;27;20257;-62
2023/05/01 01:32:53;;;;;;;0.90;0.80;;;21.20;70.20;;;;;;5120954;27;20197;-63
2023/05/01 01:35:25;;;;;;;1.00;0.90;;;21.30;70.30;;;;;;5127556;27;20215;-62
2023/05/01 01:37:57;;;;;;;1.10;0.80;;;21.20;70.20;;;;;;5125738;27;20288;-62
2023/05/01 01:40:31;;;;;;;1.20;0.90;;;21.20;70.40;;;;;;5122835;27;20193;-63
2023/05/01 01:43:03;;;;;;;1.40;0.90;;;21.20;70.30;;;;;;5127171;27;20201;-62
2023/05/01 01:45:36;;;;;;;1.00;0.80;;;21.20;70.20;;;;;;5114983;27;20221;-63
2023/05/01 01:48:04;;;;;;;1.17;0.80;;;21.20;70.30;;;;;;5123396;27;20188;-62
2023/05/01 01:50:35;;;;;;;1.10;0.90;;;21.20;70.30;;;;;;5121546;27;20655;-61
2023/05/01 01:53:04;;;;;;;2.17;1.00;;;21.20;70.20;;;;;;5122489;27;20205;-64
2023/05/01 01:55:32;;;;;;;1.00;0.80;;;21.20;70.30;;;;;;5126960;27;20279;-63
2023/05/01 01:58:00;;;;;;;0.93;0.80;;;21.20;70.40;;;;;;5127220;27;20665;-64
2023/05/01 02:00:28;;;;;;;0.90;0.80;;;21.20;70.30;;;;;;5119509;27;20189;-62
2023/05/01 02:02:55;;;;;;;0.90;0.77;;;21.10;70.20;;;;;;5130275;27;20201;-62
2023/05/01 02:05:24;;;;;;;1.20;0.98;;;21.10;70.20;;;;;;5116849;27;20223;-62
2023/05/01 02:07:54;;;;;;;1.20;0.70;;;21.10;70.20;;;;;;5116244;27;20557;-62
2023/05/01 02:10:22;;;;;;;1.30;0.90;;;21.10;70.30;;;;;;5127676;27;20236;-62
2023/05/01 02:12:52;;;;;;;1.38;0.90;;;21.10;70.20;;;;;;5125388;28;20197;-63
2023/05/01 02:15:21;;;;;;;1.30;0.90;;;21.10;71.00;;;;;;5118759;27;20242;-63
2023/05/01 02:17:48;;;;;;;1.00;0.80;;;21.10;70.10;;;;;;5129138;27;20196;-62
2023/05/01 02:20:15;;;;;;;1.17;0.90;;;21.10;70.30;;;;;;5122677;27;20197;-63
2023/05/01 02:22:44;;;;;;;1.00;0.80;;;21.10;70.30;;;;;;5120662;27;20209;-62
2023/05/01 02:25:14;;;;;;;1.33;0.80;;;21.00;70.10;;;;;;5130707;27;20224;-63
2023/05/01 02:27:45;;;;;;;1.00;0.90;;;21.10;70.40;;;;;;5131236;27;20192;-63
2023/05/01 02:30:15;;;;;;;1.00;0.90;;;21.00;70.20;;;;;;5126922;27;20200;-62
2023/05/01 02:32:42;;;;;;;1.42;0.98;;;21.00;70.30;;;;;;5128268;27;20193;-63
2023/05/01 02:35:09;;;;;;;1.40;0.90;;;21.00;70.20;;;;;;5133523;27;20196;-62
2023/05/01 02:37:36;;;;;;;1.00;0.80;;;21.00;70.30;;;;;;5131547;27;20234;-63
2023/05/01 02:40:04;;;;;;;1.23;1.02;;;21.00;70.30;;;;;;5130387;27;20277;-63
2023/05/01 02:42:34;;;;;;;1.42;1.00;;;21.00;70.30;;;;;;5127112;27;20212;-62
2023/05/01 02:45:06;;;;;;;1.77;0.95;;;21.00;70.40;;;;;;5127356;27;20314;-64
2023/05/01 02:47:37;;;;;;;1.95;0.80;;;21.00;70.40;;;;;;5123210;27;20188;-62
2023/05/01 02:50:07;;;;;;;1.00;0.90;;;21.00;70.30;;;;;;5120952;27;20636;-63
2023/05/01 02:52:36;;;;;;;1.00;0.90;;;20.90;70.20;;;;;;5119181;27;20209;-62
2023/05/01 02:55:04;;;;;;;1.73;0.98;;;21.00;70.30;;;;;;5124954;27;20197;-63
2023/05/01 02:57:38;;;;;;;0.90;0.70;;;21.00;70.40;;;;;;5133093;27;20261;-62
2023/05/01 03:00:08;;;;;;;1.55;0.77;;;20.90;70.30;;;;;;5120882;27;20197;-63
2023/05/01 03:02:34;;;;;;;1.00;0.90;;;20.90;70.40;;;;;;5134045;27;20193;-63
2023/05/01 03:05:01;;;;;;;1.30;0.95;;;20.90;70.30;;;;;;5127820;27;20212;-62
2023/05/01 03:07:33;;;;;;;1.50;0.95;;;20.90;70.30;;;;;;5124625;27;20225;-62
2023/05/01 03:10:02;;;;;;;1.50;0.90;;;20.90;70.40;;;;;;5128029;27;20499;-64
2023/05/01 03:12:29;;;;;;;1.15;0.90;;;20.90;70.20;;;;;;5113841;27;20214;-62
2023/05/01 03:14:57;;;;;;;1.00;0.80;;;20.90;70.40;;;;;;5117419;27;20256;-62
2023/05/01 03:17:24;;;;;;;2.20;0.90;;;20.90;70.20;;;;;;5111705;27;20276;-62
2023/05/01 03:19:52;;;;;;;1.00;0.90;;;20.90;70.40;;;;;;5110906;27;20202;-62
2023/05/01 03:22:20;;;;;;;1.67;0.90;;;20.80;70.30;;;;;;5127265;27;20210;-63
2023/05/01 03:24:47;;;;;;;1.10;1.00;;;20.80;70.30;;;;;;5130703;27;20281;-63
2023/05/01 03:27:14;;;;;;;1.10;0.88;;;20.90;70.50;;;;;;5115257;27;20196;-63
2023/05/01 03:29:40;;;;;;;1.50;0.98;;;20.80;70.30;;;;;;5117696;27;20192;-62
2023/05/01 03:32:09;;;;;;;0.90;0.80;;;20.80;70.40;;;;;;5130721;27;20198;-62
2023/05/01 03:34:35;;;;;;;1.10;0.80;;;20.80;70.40;;;;;;5128762;27;20203;-63
2023/05/01 03:37:02;;;;;;;1.00;0.88;;;20.90;70.40;;;;;;5132861;27;20196;-62
2023/05/01 03:39:29;;;;;;;1.23;0.88;;;20.90;70.50;;;;;;5129696;27;20205;-62
2023/05/01 03:41:56;;;;;;;1.00;0.80;;;20.90;70.50;;;;;;5114696;27;20285;-62
2023/05/01 03:44:23;;;;;;;1.00;0.90;;;20.90;70.30;;;;;;5127345;27;20201;-63
2023/05/01 03:46:49;;;;;;;1.00;0.80;;;20.90;70.30;;;;;;5115442;27;20224;-62
2023/05/01 03:49:17;;;;;;;1.23;1.10;;;20.90;70.30;;;;;;5129821;27;20193;-61
2023/05/01 03:51:47;;;;;;;1.00;0.80;;;20.90;70.30;;;;;;5131524;27;20270;-62
2023/05/01 03:54:13;;;;;;;0.93;0.70;;;20.90;70.20;;;;;;5112080;27;20224;-62
2023/05/01 03:56:40;;;;;;;1.30;0.70;;;20.90;70.10;;;;;;5113818;27;20344;-62
2023/05/01 03:59:08;;;;;;;1.30;0.88;;;20.90;70.30;;;;;;5128269;27;20185;-62
2023/05/01 04:01:38;;;;;;;0.90;0.80;;;20.90;70.30;;;;;;5127206;27;20228;-63
2023/05/01 04:04:06;;;;;;;1.55;0.95;;;20.80;70.20;;;;;;5128035;27;20201;-62
2023/05/01 04:06:37;;;;;;;1.00;0.80;;;20.80;70.30;;;;;;5133447;27;20225;-62
2023/05/01 04:09:08;;;;;;;1.10;0.80;;;20.80;70.20;;;;;;5124147;27;20229;-63
2023/05/01 04:11:34;;;;;;;1.00;0.90;;;20.80;70.20;;;;;;5125292;27;20197;-62
2023/05/01 04:14:03;;;;;;;1.42;0.80;;;20.80;71.00;;;;;;5127250;27;20609;-63
2023/05/01 04:16:32;;;;;;;1.00;0.70;;;20.80;70.00;;;;;;5131426;27;20267;-62
2023/05/01 04:18:59;;;;;;;2.05;0.90;;;20.80;70.10;;;;;;5130145;27;20197;-62
2023/05/01 04:21:25;;;;;;;1.20;1.00;;;20.80;70.10;;;;;;5122164;27;20752;-62
2023/05/01 04:23:53;;;;;;;1.00;0.70;;;20.80;70.10;;;;;;5123740;27;20668;-63
2023/05/01 04:26:20;;;;;;;1.10;0.90;;;20.80;70.90;;;;;;5115998;27;20228;-63
2023/05/01 04:28:47;;;;;;;1.00;0.80;;;20.80;70.20;;;;;;5126179;27;20214;-62
2023/05/01 04:31:14;;;;;;;1.20;1.00;;;20.80;70.20;;;;;;5126439;27;20201;-62
2023/05/01 04:33:40;;;;;;;1.05;0.80;;;20.70;70.00;;;;;;5130009;27;20280;-62
2023/05/01 04:36:08;;;;;;;1.30;1.10;;;20.80;70.30;;;;;;5130134;27;20201;-62
2023/05/01 04:38:35;;;;;;;0.90;0.70;;;20.70;70.90;;;;;;5123683;27;20214;-62
2023/05/01 04:41:05;;;;;;;1.30;0.70;;;20.70;70.10;;;;;;5127337;27;20197;-62
2023/05/01 04:43:31;;;;;;;0.95;0.80;;;20.70;70.10;;;;;;5130242;27;20197;-63
2023/05/01 04:45:58;;;;;;;1.25;0.80;;;20.70;70.10;;;;;;5121195;27;20274;-62
2023/05/01 04:48:31;;;;;;;1.08;0.90;;;20.70;70.10;;;;;;5128986;27;20201;-62
2023/05/01 04:50:58;;;;;;;1.50;0.85;;;20.70;70.10;;;;;;5131034;27;20204;-62
2023/05/01 04:53:24;;;;;;;1.30;0.80;;;20.70;70.10;;;;;;5122326;27;20565;-62
2023/05/01 04:55:51;;;;;;;1.08;0.90;;;20.70;70.20;;;;;;5128246;27;20705;-62
2023/05/01 04:58:19;;;;;;;1.65;0.80;;;20.70;70.30;;;;;;5120441;27;20191;-62
2023/05/01 05:00:46;;;;;;;1.23;1.00;;;20.70;70.10;;;;;;5124322;27;20201;-62
2023/05/01 05:03:14;;;;;;;1.00;0.90;;;20.70;70.20;;;;;;5128978;27;20188;-63
2023/05/01 05:05:40;;;;;;;0.95;0.70;;;20.70;70.10;;;;;;5126185;27;20307;-62
2023/05/01 05:08:13;;;;;;;1.50;0.93;;;20.70;70.20;;;;;;5127460;27;20262;-62
2023/05/01 05:10:40;;;;;;;1.02;0.77;;;20.60;70.10;;;;;;5116999;27;20748;-63
2023/05/01 05:13:09;;;;;;;1.00;0.70;;;20.60;70.10;;;;;;5129866;27;20192;-62
2023/05/01 05:15:38;;;;;;;1.10;0.98;;;20.70;70.30;;;;;;5123784;27;20996;-63
2023/05/01 05:18:05;;;;;;;0.90;0.75;;;20.70;70.30;;;;;;5118635;27;20242;-62
2023/05/01 05:20:38;;;;;;;1.42;0.73;;;20.70;70.30;;;;;;5131384;27;20648;-62
2023/05/01 05:23:06;;;;;;;1.00;0.90;;;20.70;70.30;;;;;;5114336;27;20216;-63
2023/05/01 05:25:33;;;;;;;0.95;0.80;;;20.70;70.10;;;;;;5123623;27;20212;-63
2023/05/01 05:28:04;;;;;;;1.00;0.70;;;20.70;70.20;;;;;;5128915;27;20608;-62
2023/05/01 05:30:39;;;;;;;0.90;0.80;;;20.70;70.20;;;;;;5111045;27;20193;-62
2023/05/01 05:33:08;;;;;;;1.05;0.82;;;20.80;70.30;;;;;;5127386;27;20275;-62
2023/05/01 05:35:35;;;;;;;1.20;1.10;;;20.80;70.30;;;;;;5126431;27;20292;-62
2023/05/01 05:38:04;;;;;;;0.90;0.80;;;20.80;70.10;;;;;;5121043;27;20188;-62
2023/05/01 05:40:40;;;;;;;0.95;0.80;;;20.90;70.30;;;;;;5126224;27;20249;-62
2023/05/01 05:43:08;;;;;;;0.85;0.70;;;20.90;70.10;;;;;;5119884;27;20559;-62
2023/05/01 05:45:37;;;;;;;1.10;0.82;;;20.90;70.20;;;;;;5121695;27;20299;-63
2023/05/01 05:48:16;;;;;;;1.10;0.80;;;20.90;70.10;;;;;;5126719;27;20193;-62
2023/05/01 05:50:43;;;;;;;1.13;0.90;;;20.90;70.00;;;;;;5131212;27;20189;-62
2023/05/01 05:53:12;;;;;;;1.38;0.85;;;20.90;70.10;;;;;;5113466;27;20216;-62
2023/05/01 05:55:39;;;;;;;0.90;0.70;;;20.90;70.10;;;;;;5116828;27;20956;-62
2023/05/01 05:58:05;;;;;;;1.00;0.80;;;20.90;70.10;;;;;;5127797;27;20610;-60
2023/05/01 06:00:35;;;;;;;0.80;0.60;;;20.90;70.00;;;;;;5127904;27;20192;-61
2023/05/01 06:03:03;;;;;;;1.10;0.90;;;20.90;70.00;;;;;;5120313;27;20238;-61
2023/05/01 06:05:35;;;;;;;1.10;0.82;;;21.00;70.10;;;;;;5128891;27;20285;-62
2023/05/01 06:08:01;;;;;;;1.70;0.90;;;21.00;70.00;;;;;;5129375;27;20277;-62
2023/05/01 06:10:33;;;;;;;0.93;0.80;;;21.00;70.10;;;;;;5123395;27;20633;-62
2023/05/01 06:13:02;;;;;;;1.15;1.05;;;21.10;70.20;;;;;;5126089;28;20864;-61
2023/05/01 06:15:29;;;;;;;1.00;0.80;;;21.10;70.20;;;;;;5120362;27;20197;-61
2023/05/01 06:17:56;;;;;;;1.10;0.90;;;21.20;70.20;;;;;;5112949;28;20211;-62
2023/05/01 06:20:23;;;;;;;1.10;1.00;;;21.20;70.20;;;;;;5119763;28;20208;-61
2023/05/01 06:22:54;;;;;;;1.20;0.90;;;21.20;70.20;;;;;;5129319;28;20289;-62
2023/05/01 06:25:25;;;;;;;1.00;0.80;;;21.20;70.10;;;;;;5115420;28;20671;-63
2023/05/01 06:27:54;;;;;;;0.80;0.70;;;21.20;70.20;;;;;;5107558;28;20256;-62
2023/05/01 06:30:21;;;;;;;1.00;0.70;;;21.30;70.20;;;;;;5114259;28;20575;-61
2023/05/01 06:32:48;;;;;;;1.02;0.85;;;21.30;70.10;;;;;;5127233;27;20253;-62
2023/05/01 06:35:15;;;;;;;1.00;0.80;;;21.30;70.10;;;;;;5126151;28;20626;-62
2023/05/01 06:37:42;;;;;;;1.00;0.73;;;21.30;69.90;;;;;;5126864;28;20691;-61
2023/05/01 06:40:13;;;;;;;0.90;0.70;;;21.30;70.00;;;;;;5127910;28;20216;-61
2023/05/01 06:42:41;;;;;;;0.90;0.73;;;21.30;69.90;;;;;;5128564;28;20598;-61
2023/05/01 06:45:08;;;;;;;1.10;0.80;;;21.30;69.90;;;;;;5119466;28;20189;-61
2023/05/01 06:47:38;;;;;;;1.13;0.80;;;21.40;70.00;;;;;;5123099;28;20213;-61
2023/05/01 06:50:07;;;;;;;1.00;0.80;;;21.30;69.90;;;;;;5125239;28;20650;-62
2023/05/01 06:52:34;;;;;;;0.90;0.80;;;21.30;70.00;;;;;;5126892;28;20201;-61
2023/05/01 06:55:03;;;;;;;1.10;0.90;;;21.30;69.80;;;;;;5125602;28;20462;-63
2023/05/01 06:57:31;;;;;;;1.00;0.82;;;21.30;69.80;;;;;;5121256;28;20196;-62
2023/05/01 07:00:00;;;;;;;1.48;1.00;;;21.30;69.80;;;;;;5117345;27;20630;-62
2023/05/01 07:02:27;;;;;;;0.95;0.80;;;21.30;69.80;;;;;;5122870;27;20204;-61
2023/05/01 07:04:55;;;;;;;1.23;0.98;;;21.40;70.00;;;;;;5130579;27;20691;-62
2023/05/01 07:07:25;;;;;;;1.30;0.80;;;21.30;70.40;;;;;;5123284;27;20350;-62
2023/05/01 07:09:52;;;;;;;3.28;0.95;;;21.30;70.80;;;;;;5120902;27;20197;-61
2023/05/01 07:12:22;;;;;;;1.00;0.82;;;21.30;71.70;;;;;;5115176;27;20227;-63
2023/05/01 07:14:52;;;;;;;1.10;0.90;;;21.40;72.00;;;;;;5112801;27;20197;-64
2023/05/01 07:17:24;;;;;;;1.30;0.90;;;21.30;72.60;;;;;;5114276;27;20607;-63
2023/05/01 07:19:53;;;;;;;1.52;1.00;;;21.30;72.60;;;;;;5129864;27;20197;-59
2023/05/01 07:22:20;;;;;;;3.53;1.00;;;21.30;72.40;;;;;;5120129;27;20461;-63
2023/05/01 07:24:52;;;;;;;3.80;0.93;;;21.40;73.10;;;;;;5112188;27;20205;-64
2023/05/01 07:27:34;;;;;;;2.45;0.93;;;21.40;73.30;;;;;;5114006;27;20193;-64
2023/05/01 07:30:05;;;;;;;1.23;0.80;;;21.40;73.30;;;;;;5126039;27;20215;-64
2023/05/01 07:32:34;;;;;;;5.13;0.88;;;21.40;73.20;;;;;;5124315;27;20232;-64
2023/05/01 07:35:02;;;;;;;1.30;0.90;;;21.30;73.00;;;;;;5121504;27;20292;-64
2023/05/01 07:37:31;;;;;;;1.58;0.90;;;21.40;73.00;;;;;;5122075;27;20208;-64
2023/05/01 07:40:03;;;;;;;3.78;0.90;;;21.40;72.90;;;;;;5123150;27;20206;-64
2023/05/01 07:42:32;;;;;;;2.03;0.90;;;21.40;72.90;;;;;;5126131;27;20189;-64
2023/05/01 07:44:59;;;;;;;1.40;1.08;;;21.40;73.50;;;;;;5118293;27;20475;-64
2023/05/01 07:47:29;;;;;;;1.20;1.00;;;21.40;72.60;;;;;;5122752;27;20220;-64
2023/05/01 07:49:56;;;;;;;1.07;0.80;;;21.40;72.60;;;;;;5128247;27;20193;-64
2023/05/01 07:52:28;;;;;;;1.10;0.90;;;21.40;72.40;;;;;;5127304;27;20470;-63
2023/05/01 07:54:56;;;;;;;1.30;1.00;;;21.40;72.40;;;;;;5117012;27;20479;-64
2023/05/01 07:57:23;;;;;;;2.08;0.85;;;21.40;72.40;;;;;;5124567;27;20446;-64
2023/05/01 07:59:54;;;;;;;1.30;0.80;;;21.40;73.20;;;;;;5129470;27;20193;-64
2023/05/01 08:02:21;;;;;;;2.23;0.80;;;21.40;72.30;;;;;;5123322;27;21195;-64
2023/05/01 08:04:49;;;;;;;1.40;1.08;;;21.40;72.20;;;;;;5131302;27;20447;-63
2023/05/01 08:07:19;;;;;;;2.33;0.95;;;21.40;72.10;;;;;;5122547;27;20633;-64
2023/05/01 08:09:46;;;;;;;2.28;1.00;;;21.40;72.00;;;;;;5121708;27;20184;-64
2023/05/01 08:12:15;;;;;;;1.25;0.90;;;21.50;72.10;;;;;;5131048;27;20193;-64
2023/05/01 08:14:43;;;;;;;1.20;0.90;;;21.50;72.00;;;;;;5125333;27;20193;-64
2023/05/01 08:17:13;;;;;;;2.13;0.90;;;21.50;72.10;;;;;;5116242;27;20197;-64
2023/05/01 08:19:39;;;;;;;1.70;0.90;;;21.50;71.90;;;;;;5131665;27;20473;-65
2023/05/01 08:22:07;;;;;;;3.22;1.00;;;21.50;72.00;;;;;;5120341;27;20221;-64
2023/05/01 08:24:38;;;;;;;1.50;1.10;;;21.50;71.90;;;;;;5126446;27;20216;-64
2023/05/01 08:27:10;;;;;;;1.10;0.90;;;21.50;71.90;;;;;;5113270;27;20213;-64
2023/05/01 08:29:40;;;;;;;1.40;0.90;;;21.50;71.80;;;;;;5122714;27;20196;-64
2023/05/01 08:32:08;;;;;;;3.50;1.30;;;21.60;71.80;;;;;;5130085;27;20445;-64
2023/05/01 08:34:35;;;;;;;2.22;1.15;;;21.50;71.80;;;;;;5123609;27;20203;-64
2023/05/01 08:37:02;;;;;;;1.37;0.90;;;21.60;71.80;;;;;;5128913;27;20288;-64
2023/05/01 08:39:30;;;;;;;1.23;1.10;;;21.50;71.70;;;;;;5125280;27;20511;-64
2023/05/01 08:41:57;;;;;;;1.10;0.80;;;21.60;71.70;;;;;;5118220;27;20201;-64
2023/05/01 08:44:25;;;;;;;1.40;1.00;;;21.60;71.80;;;;;;5116851;27;20529;-64
2023/05/01 08:47:05;;;;;;;1.10;0.77;;;21.60;71.70;;;;;;5115265;27;21058;-64
2023/05/01 08:49:42;;;;;;;1.40;1.05;;;21.60;71.70;;;;;;5118280;27;20907;-64
2023/05/01 08:52:11;;;;;;;1.77;1.00;;;21.60;71.70;;;;;;5128600;27;20193;-64
2023/05/01 08:54:43;;;;;;;1.42;1.15;;;21.60;71.70;;;;;;5122840;27;20454;-64
2023/05/01 08:57:12;;;;;;;1.00;0.90;;;21.60;71.70;;;;;;5119384;27;20193;-64
2023/05/01 09:02:28;;;;;;;2.10;0.90;;;21.60;71.70;;;;;;5112346;27;20880;-64
2023/05/01 09:05:02;;;;;;;1.03;0.90;;;21.60;71.70;;;;;;5118974;27;20195;-64
2023/05/01 09:07:36;;;;;;;1.05;0.80;;;21.60;71.60;;;;;;5114132;27;20491;-64
2023/05/01 09:10:09;;;;;;;1.48;1.38;;;21.60;71.60;;;;;;5113513;27;20265;-64
2023/05/01 09:12:37;;;;;;;2.20;1.37;;;21.60;71.40;;;;;;5118421;27;20635;-65
2023/05/01 09:15:12;;;;;;;1.10;0.90;;;21.60;71.30;;;;;;5122405;27;20458;-65
2023/05/01 09:17:46;;;;;;;1.60;0.90;;;21.60;71.30;;;;;;5126947;27;20466;-65
2023/05/01 09:20:13;;;;;;;1.40;0.95;;;21.60;71.30;;;;;;5122057;27;20656;-65
2023/05/01 09:22:43;;;;;;;1.73;1.00;;;21.60;71.20;;;;;;5116315;27;20217;-65
2023/05/01 09:25:12;;;;;;;1.40;0.95;;;21.60;71.40;;;;;;5114100;27;20454;-64
2023/05/01 09:27:38;;;;;;;1.97;0.90;;;21.70;71.40;;;;;;5119240;27;20860;-64
2023/05/01 09:30:09;;;;;;;1.23;0.80;;;21.70;71.40;;;;;;5122931;27;20451;-65
2023/05/01 09:32:36;;;;;;;1.00;0.80;;;21.70;71.20;;;;;;5120634;27;20193;-64
2023/05/01 09:35:13;;;;;;;1.35;1.00;;;21.70;71.10;;;;;;5124813;27;20560;-65
2023/05/01 09:37:41;;;;;;;1.10;0.90;;;21.70;71.10;;;;;;5120466;27;20197;-65
2023/05/01 09:40:09;;;;;;;1.55;0.90;;;21.70;70.90;;;;;;5120269;27;20450;-65
2023/05/01 09:42:42;;;;;;;3.03;1.00;;;21.70;70.80;;;;;;5123252;27;20236;-65
2023/05/01 09:45:13;;;;;;;1.73;1.00;;;21.70;70.70;;;;;;5117802;27;20532;-65
2023/05/01 09:47:48;;;;;;;3.25;1.20;;;21.70;70.60;;;;;;5128753;27;20269;-65
2023/05/01 09:50:32;;;;;;;1.20;0.87;;;21.70;70.60;;;;;;5120001;27;20235;-65
2023/05/01 09:53:04;;;;;;;1.03;0.80;;;21.70;70.50;;;;;;5120862;27;20546;-65
2023/05/01 10:00:34;;;;;;;1.45;0.98;;;21.70;70.40;;;;;;5075152;27;20538;-66
2023/05/01 10:14:19;;;;;;;1.45;0.90;;;21.80;70.40;;;;;;4912018;28;20580;-63
2023/05/01 10:16:56;;;;;;;3.05;1.75;;;21.80;70.40;;;;;;5001340;28;20292;-66
2023/05/01 10:19:26;;;;;;;1.10;1.00;;;21.80;70.40;;;;;;5059459;28;20543;-62
2023/05/01 10:22:02;;;;;;;2.50;0.90;;;21.80;70.40;;;;;;5044124;28;20269;-65
2023/05/01 10:24:32;;;;;;;0.97;0.87;;;21.80;70.50;;;;;;5038562;28;20810;-65
2023/05/01 10:27:03;;;;;;;6.20;1.00;;;21.80;70.40;;;;;;5033863;28;22116;-61
2023/05/01 10:29:35;;;;;;;5.23;1.00;;;21.80;70.60;;;;;;5031279;28;20462;-61
2023/05/01 10:32:16;;;;;;;5.67;1.10;;;21.80;70.70;;;;;;5021183;28;20461;-67
2023/05/01 10:35:02;;;;;;;2.97;0.93;;;21.80;70.50;;;;;;5035967;28;20902;-68
2023/05/01 10:37:38;;;;;;;3.33;1.10;;;21.80;70.80;;;;;;5030078;28;20504;-62
2023/05/01 10:40:38;;;;;;;2.40;0.90;;;21.80;71.10;;;;;;5030265;28;20549;-68
2023/05/01 10:43:28;;;;;;;1.80;0.90;;;21.90;71.40;;;;;;5029099;28;20504;-65
2023/05/01 10:46:25;;;;;;;1.33;0.90;;;21.90;71.60;;;;;;5030707;28;20473;-57
2023/05/01 10:49:00;;;;;;;2.90;1.10;;;21.90;71.60;;;;;;5040619;28;20499;-63
2023/05/01 10:51:29;;;;;;;4.10;1.37;;;21.90;71.70;;;;;;5040802;28;20537;-65
2023/05/01 10:54:22;;;;;;;1.37;1.00;;;21.90;71.80;;;;;;5038946;28;20458;-60
2023/05/01 10:56:51;;;;;;;1.17;0.80;;;22.00;71.90;;;;;;5039301;28;20462;-58
2023/05/01 10:59:23;;;;;;;1.10;1.00;;;22.00;72.00;;;;;;5039438;28;20483;-63
2023/05/01 11:02:22;;;;;;;1.17;0.80;;;22.00;72.00;;;;;;5038112;28;20470;-62
2023/05/01 11:05:02;;;;;;;1.97;0.80;;;22.00;72.10;;;;;;5042707;28;20913;-61
2023/05/01 11:07:30;;;;;;;1.23;0.90;;;22.00;72.00;;;;;;5041398;28;20458;-58
2023/05/01 11:09:57;;;;;;;1.00;0.80;;;22.00;72.00;;;;;;5034066;28;20463;-60
2023/05/01 11:13:05;;;;;;;1.30;0.93;;;22.10;72.10;;;;;;5026085;28;20482;-59
2023/05/01 11:15:34;;;;;;;0.90;0.80;;;22.10;72.10;;;;;;5006088;28;21035;-55
2023/05/01 11:18:47;;;;;;;1.30;0.90;;;22.10;71.90;;;;;;5027334;28;21482;-55
2023/05/01 11:21:33;;;;;;;1.00;0.70;;;22.10;71.90;;;;;;5025017;28;20458;-57
2023/05/01 11:24:00;;;;;;;1.63;1.43;;;22.20;72.00;;;;;;5023122;28;20460;-62
2023/05/01 11:26:32;;;;;;;1.50;0.80;;;22.20;71.90;;;;;;5027390;28;20463;-63
2023/05/01 11:29:03;;;;;;;0.93;0.80;;;22.20;71.90;;;;;;5033136;28;20457;-61
2023/05/01 11:31:30;;;;;;;1.10;1.00;;;22.30;71.90;;;;;;5021627;28;20451;-59
2023/05/01 11:33:58;;;;;;;1.13;0.80;;;22.30;71.80;;;;;;5022242;28;20459;-57
2023/05/01 11:36:25;;;;;;;2.23;1.00;;;22.30;71.80;;;;;;5026164;28;20455;-53
2023/05/01 11:38:59;;;;;;;1.87;0.90;;;22.30;71.80;;;;;;5019107;28;20479;-58
2023/05/01 11:41:27;;;;;;;2.37;1.10;;;22.40;71.80;;;;;;5020254;28;20546;-53
2023/05/01 11:43:55;;;;;;;2.10;1.30;;;22.40;71.70;;;;;;5032051;28;20490;-56
2023/05/01 11:46:40;;;;;;;1.40;0.97;;;22.40;71.70;;;;;;5023819;28;21167;-53
2023/05/01 11:49:29;;;;;;;1.10;0.90;;;22.40;71.60;;;;;;5025523;28;20532;-55
2023/05/01 11:51:58;;;;;;;1.30;0.73;;;22.40;71.50;;;;;;5018015;28;21043;-60
2023/05/01 11:54:27;;;;;;;2.30;0.90;;;22.50;71.50;;;;;;5028524;28;20459;-54
2023/05/01 11:57:00;;;;;;;3.43;1.00;;;22.50;71.50;;;;;;5022247;28;20819;-66
2023/05/01 11:59:27;;;;;;;1.30;0.90;;;22.50;71.40;;;;;;5022773;28;20556;-66
2023/05/01 12:01:54;;;;;;;1.00;0.87;;;22.50;71.40;;;;;;5020261;28;20873;-67
2023/05/01 12:04:26;;;;;;;0.90;0.77;;;22.50;71.40;;;;;;5026537;28;20463;-65
2023/05/01 12:06:53;;;;;;;1.40;0.97;;;22.60;71.20;;;;;;5024187;28;20546;-64
2023/05/01 12:09:21;;;;;;;3.00;1.00;;;22.60;70.90;;;;;;5011687;28;20470;-67
2023/05/01 12:11:51;;;;;;;6.20;0.90;;;22.60;70.90;;;;;;5024535;28;20544;-69
2023/05/01 12:14:18;;;;;;;1.60;1.40;;;22.60;70.70;;;;;;5020950;28;20462;-65
2023/05/01 12:16:46;;;;;;;2.67;1.30;;;22.60;69.80;;;;;;5023738;28;20455;-69
2023/05/01 12:19:13;;;;;;;2.40;0.90;;;22.60;69.40;;;;;;5030825;28;20514;-63
2023/05/01 12:21:41;;;;;;;5.27;1.20;;;22.60;68.70;;;;;;5033295;28;21072;-67
2023/05/01 12:24:09;;;;;;;1.73;1.23;;;22.60;67.50;;;;;;5029166;28;20525;-63
2023/05/01 12:26:36;;;;;;;1.57;1.27;;;22.60;66.80;;;;;;5025862;28;20494;-67
2023/05/01 12:29:05;;;;;;;1.17;1.07;;;22.60;66.40;;;;;;5030688;28;20470;-64
2023/05/01 12:31:33;;;;;;;1.53;1.23;;;22.60;66.00;;;;;;5028960;28;20549;-71
2023/05/01 12:34:01;;;;;;;5.63;1.50;;;22.60;66.10;;;;;;5027246;28;20455;-59
2023/05/01 12:36:30;;;;;;;5.50;1.30;;;22.60;66.80;;;;;;5031411;28;20482;-57
2023/05/01 12:39:01;;;;;;;1.87;1.57;;;22.60;67.00;;;;;;5027902;28;20475;-58
2023/05/01 12:41:37;;;;;;;4.50;1.53;;;22.60;66.70;;;;;;5026940;28;20858;-60
2023/05/01 12:44:18;;;;;;;4.10;1.90;;;22.60;66.10;;;;;;5025727;28;20466;-60
2023/05/01 12:46:52;;;;;;;3.40;1.53;;;22.60;65.80;;;;;;5021175;28;20456;-58
2023/05/01 12:49:19;;;;;;;7.60;1.23;;;22.50;65.40;;;;;;5011149;28;20466;-60
2023/05/01 12:51:47;;;;;;;3.43;1.30;;;22.50;64.90;;;;;;5022923;28;20458;-57
2023/05/01 12:54:20;;;;;;;1.50;1.17;;;22.50;64.90;;;;;;5020497;28;20489;-59
2023/05/01 12:56:46;;;;;;;2.83;1.20;;;22.50;64.50;;;;;;5021227;28;20542;-57
2023/05/01 12:59:22;;;;;;;1.70;1.40;;;22.50;64.40;;;;;;5022367;28;20537;-58
2023/05/01 13:01:56;;;;;;;2.60;1.50;;;22.50;64.70;;;;;;5025202;28;20894;-58
2023/05/01 13:04:24;;;;;;;2.27;1.30;;;22.50;65.00;;;;;;5029240;28;20549;-55
2023/05/01 13:06:52;;;;;;;2.33;1.40;;;22.50;65.30;;;;;;5029528;28;20463;-60
2023/05/01 13:34:22;;;;;;;3.10;1.10;;;22.40;66.60;;;;;;4991788;28;20485;-55
2023/05/01 13:36:48;;;;;;;2.10;1.40;;;22.40;66.80;;;;;;5023599;28;20553;-54
2023/05/01 13:39:19;;;;;;;1.47;1.17;;;22.40;66.80;;;;;;5027020;28;20478;-57
2023/05/01 13:41:46;;;;;;;3.07;1.40;;;22.40;66.90;;;;;;5030159;28;20443;-55
2023/05/01 13:47:01;;;;;;;2.70;1.27;;;22.40;67.00;;;;;;5019800;28;20459;-58
2023/05/01 13:49:41;;;;;;;3.10;1.60;;;22.40;67.20;;;;;;5026616;28;20469;-61
2023/05/01 13:59:35;;;;;;;1.93;1.10;;;22.40;67.50;;;;;;5032610;28;20498;-62